Time;durP1;ratioP1;P1;durP2;ratioP2;P2;SDS_P1;SDS_P2;PMS_P1;PMS_P2;Temp;Humidity;BMP_temperature;BMP_pressure;BME280_temperature;BME280_humidity;BME280_pressure;Samples;Min_cycle;Max_cycle;Signal;HPM_P1;HPM_P2
2023/07/05 00:00:46;;;;;;;83.70;53.40;;;19.00;77.00;;;;;;4936150;28;90268;-49
2023/07/05 00:03:12;;;;;;;83.72;53.47;;;19.00;77.70;;;;;;4942647;28;92068;-45
2023/07/05 00:05:38;;;;;;;84.97;54.05;;;18.90;76.70;;;;;;4943253;28;89733;-47
2023/07/05 00:08:04;;;;;;;83.57;53.30;;;18.90;77.10;;;;;;4939158;28;94040;-45
2023/07/05 00:10:30;;;;;;;83.78;53.72;;;18.80;77.70;;;;;;4939216;28;89693;-46
2023/07/05 00:12:59;;;;;;;84.50;53.63;;;18.80;77.00;;;;;;4924728;28;93353;-46
2023/07/05 00:15:25;;;;;;;84.03;53.42;;;18.80;77.10;;;;;;4944094;28;90483;-47
2023/07/05 00:17:51;;;;;;;83.72;53.45;;;18.70;76.90;;;;;;4942717;28;89519;-46
2023/07/05 00:20:16;;;;;;;85.03;53.47;;;18.70;77.30;;;;;;4945606;28;91118;-45
2023/07/05 00:22:42;;;;;;;83.57;53.30;;;18.70;77.70;;;;;;4936006;28;90246;-45
2023/07/05 00:25:08;;;;;;;82.70;53.28;;;18.70;79.50;;;;;;4945790;28;94923;-46
2023/07/05 00:27:33;;;;;;;84.07;53.42;;;18.60;78.60;;;;;;4942624;28;91918;-47
2023/07/05 00:29:59;;;;;;;84.50;53.67;;;18.60;77.80;;;;;;4938342;28;90173;-47
2023/07/05 00:32:25;;;;;;;84.07;53.58;;;18.50;78.70;;;;;;4937598;28;90212;-47
2023/07/05 00:34:50;;;;;;;83.38;53.33;;;18.50;79.60;;;;;;4939346;28;90679;-47
2023/07/05 00:37:16;;;;;;;82.95;53.08;;;18.50;80.10;;;;;;4940712;28;89564;-45
2023/07/05 00:39:42;;;;;;;83.22;53.20;;;18.40;78.30;;;;;;4933724;28;90924;-46
2023/07/05 00:42:07;;;;;;;83.15;53.47;;;18.40;80.20;;;;;;4938224;28;91148;-46
2023/07/05 00:44:33;;;;;;;83.07;52.88;;;18.40;78.50;;;;;;4938928;28;89237;-46
2023/07/05 00:47:24;;;;;;;83.78;53.55;;;18.30;79.60;;;;;;4941941;28;90948;-45
2023/07/05 00:49:50;;;;;;;83.78;53.13;;;18.30;78.70;;;;;;4935768;28;89879;-45
2023/07/05 00:52:18;;;;;;;82.65;53.33;;;18.30;78.00;;;;;;4937836;28;91221;-46
2023/07/05 00:54:49;;;;;;;83.18;53.28;;;18.30;77.90;;;;;;4938438;28;89975;-45
2023/07/05 00:57:20;;;;;;;84.55;53.45;;;18.20;79.30;;;;;;4943820;28;89838;-46
2023/07/05 01:00:02;;;;;;;84.35;53.65;;;18.20;79.70;;;;;;4934938;28;89795;-46
2023/07/05 01:02:30;;;;;;;83.53;53.53;;;18.20;79.30;;;;;;4935749;28;89467;-46
2023/07/05 01:04:56;;;;;;;82.55;53.20;;;18.20;78.80;;;;;;4943486;28;91144;-46
2023/07/05 01:07:22;;;;;;;82.78;53.22;;;18.10;78.40;;;;;;4945086;28;90308;-45
2023/07/05 01:09:48;;;;;;;83.50;53.42;;;18.10;80.20;;;;;;4946082;28;89899;-47
2023/07/05 01:12:40;;;;;;;82.93;53.03;;;18.10;78.90;;;;;;4945770;28;89606;-45
2023/07/05 01:15:17;;;;;;;84.35;53.25;;;18.10;80.40;;;;;;4938905;28;90208;-46
2023/07/05 01:18:24;;;;;;;82.45;53.08;;;18.10;79.90;;;;;;4939920;28;92165;-46
2023/07/05 01:21:01;;;;;;;83.18;53.22;;;18.10;79.70;;;;;;4856109;28;90101;-46
2023/07/05 01:23:41;;;;;;;83.18;53.42;;;18.00;78.60;;;;;;4935703;28;89833;-47
2023/07/05 01:26:32;;;;;;;83.00;53.42;;;18.00;78.80;;;;;;4946157;28;89727;-46
2023/07/05 01:29:07;;;;;;;;;;;18.00;78.60;;;;;;4937722;28;90751;-47
2023/07/05 01:31:54;;;;;;;82.22;53.17;;;18.00;79.50;;;;;;4937075;28;89559;-45
2023/07/05 01:34:22;;;;;;;82.22;53.05;;;18.00;81.30;;;;;;4932381;28;90084;-47
2023/07/05 01:36:48;;;;;;;82.80;53.38;;;18.00;80.10;;;;;;4938274;28;89012;-46
2023/07/05 01:39:14;;;;;;;83.13;53.58;;;17.90;79.20;;;;;;4936113;28;89945;-47
2023/07/05 01:41:40;;;;;;;84.63;53.50;;;17.90;78.40;;;;;;4938826;28;90284;-46
2023/07/05 01:44:07;;;;;;;82.63;53.53;;;17.90;82.10;;;;;;4940679;28;91430;-45
2023/07/05 01:47:24;;;;;;;83.82;53.70;;;17.90;79.90;;;;;;4937821;28;91559;-45
2023/07/05 01:49:59;;;;;;;83.50;53.72;;;17.90;80.20;;;;;;4918669;28;90095;-46
2023/07/05 01:52:51;;;;;;;83.78;53.20;;;17.90;78.80;;;;;;4939962;28;89633;-46
2023/07/05 01:55:33;;;;;;;83.05;53.47;;;17.90;80.30;;;;;;4938174;28;89139;-46
2023/07/05 01:58:11;;;;;;;82.95;53.22;;;17.90;78.50;;;;;;4944285;28;89716;-46
2023/07/05 02:00:38;;;;;;;83.72;53.45;;;17.90;80.50;;;;;;4936368;28;92840;-46
2023/07/05 02:03:09;;;;;;;82.20;52.88;;;17.80;79.50;;;;;;4936514;28;90137;-44
2023/07/05 02:05:37;;;;;;;83.75;53.67;;;17.90;80.60;;;;;;4927886;28;89815;-45
2023/07/05 02:08:04;;;;;;;83.40;53.60;;;17.90;80.00;;;;;;4946178;28;90530;-46
2023/07/05 02:10:30;;;;;;;84.03;53.20;;;17.80;78.50;;;;;;4936700;28;90867;-45
2023/07/05 02:12:57;;;;;;;83.07;53.72;;;17.80;82.80;;;;;;4940185;28;89802;-46
2023/07/05 02:15:23;;;;;;;82.88;53.45;;;17.80;80.40;;;;;;4941438;28;89698;-46
2023/07/05 02:17:48;;;;;;;84.30;53.53;;;17.80;80.90;;;;;;4940822;28;89696;-45
2023/07/05 02:20:14;;;;;;;82.45;53.40;;;17.80;79.80;;;;;;4940222;28;90258;-45
2023/07/05 02:22:40;;;;;;;81.68;53.13;;;17.80;80.10;;;;;;4947297;28;89482;-47
2023/07/05 02:25:06;;;;;;;83.65;53.75;;;17.80;79.80;;;;;;4943197;28;89539;-47
2023/07/05 02:27:32;;;;;;;82.47;53.72;;;17.80;80.10;;;;;;4943779;28;92138;-46
2023/07/05 02:29:57;;;;;;;82.53;53.35;;;17.80;81.30;;;;;;4943311;28;90306;-46
2023/07/05 02:32:24;;;;;;;82.60;53.75;;;17.80;81.30;;;;;;4938711;28;90588;-45
2023/07/05 02:34:50;;;;;;;83.20;53.35;;;17.80;79.60;;;;;;4936730;28;93331;-45
2023/07/05 02:37:16;;;;;;;82.90;53.30;;;17.80;79.60;;;;;;4941150;28;89545;-45
2023/07/05 02:39:42;;;;;;;84.05;53.53;;;17.80;80.10;;;;;;4944404;28;90046;-47
2023/07/05 02:42:08;;;;;;;82.80;53.33;;;17.70;81.20;;;;;;4942031;28;89449;-46
2023/07/05 02:44:34;;;;;;;82.35;53.35;;;17.70;80.60;;;;;;4942022;28;89561;-46
2023/07/05 02:47:00;;;;;;;83.00;53.38;;;17.70;80.60;;;;;;4938132;28;89591;-47
2023/07/05 02:49:26;;;;;;;82.40;53.42;;;17.70;79.20;;;;;;4946123;28;89836;-46
2023/07/05 02:51:52;;;;;;;83.15;53.50;;;17.70;80.10;;;;;;4947556;28;89071;-45
2023/07/05 02:54:18;;;;;;;83.03;53.67;;;17.70;80.40;;;;;;4942229;28;89621;-48
2023/07/05 02:56:43;;;;;;;83.88;53.83;;;17.70;79.00;;;;;;4940909;28;91500;-45
2023/07/05 02:59:09;;;;;;;82.78;53.63;;;17.60;79.50;;;;;;4943683;28;92471;-48
2023/07/05 03:01:35;;;;;;;84.32;53.65;;;17.60;78.60;;;;;;4937348;28;91397;-45
2023/07/05 03:04:01;;;;;;;84.20;53.65;;;17.60;79.40;;;;;;4936089;28;89776;-45
2023/07/05 03:06:26;;;;;;;83.15;53.80;;;17.70;79.90;;;;;;4934525;28;92407;-45
2023/07/05 03:08:52;;;;;;;84.13;53.63;;;17.60;79.60;;;;;;4940830;28;93031;-46
2023/07/05 03:11:18;;;;;;;82.97;53.63;;;17.60;81.20;;;;;;4936481;28;89530;-46
2023/07/05 03:13:43;;;;;;;82.82;53.63;;;17.60;79.70;;;;;;4940737;28;89692;-45
2023/07/05 03:16:09;;;;;;;81.97;52.97;;;17.60;80.00;;;;;;4938095;28;88770;-45
2023/07/05 03:18:35;;;;;;;83.88;53.30;;;17.60;79.90;;;;;;4938092;28;91782;-46
2023/07/05 03:21:00;;;;;;;83.32;53.65;;;17.60;80.00;;;;;;4947564;28;90155;-46
2023/07/05 03:23:26;;;;;;;82.88;53.55;;;17.50;79.30;;;;;;4943762;28;90895;-47
2023/07/05 03:25:57;;;;;;;82.97;53.80;;;17.50;78.00;;;;;;4940198;28;89594;-46
2023/07/05 03:28:29;;;;;;;81.88;53.35;;;17.50;78.30;;;;;;4934056;28;90629;-45
2023/07/05 03:31:06;;;;;;;81.78;53.58;;;17.50;79.80;;;;;;4939402;28;90139;-45
2023/07/05 03:33:33;;;;;;;82.20;53.33;;;17.50;78.90;;;;;;4938255;28;89662;-45
2023/07/05 03:36:02;;;;;;;82.10;53.45;;;17.50;77.80;;;;;;4936585;28;90225;-45
2023/07/05 03:38:29;;;;;;;81.80;53.00;;;17.50;81.30;;;;;;4942800;28;89575;-45
2023/07/05 03:41:05;;;;;;;82.75;53.22;;;17.50;79.80;;;;;;4934555;28;91889;-47
2023/07/05 03:43:35;;;;;;;81.80;52.70;;;17.40;77.50;;;;;;4941701;28;89336;-45
2023/07/05 03:46:02;;;;;;;82.28;53.22;;;17.40;77.00;;;;;;4940544;28;89814;-46
2023/07/05 03:48:30;;;;;;;81.75;53.10;;;17.40;78.20;;;;;;4943143;28;91282;-45
2023/07/05 03:50:57;;;;;;;82.88;53.17;;;17.40;77.50;;;;;;4939238;28;90793;-45
2023/07/05 03:53:23;;;;;;;84.38;53.40;;;17.30;79.90;;;;;;4938970;28;89766;-46
2023/07/05 03:55:48;;;;;;;81.22;53.15;;;17.30;78.90;;;;;;4946528;28;90791;-46
2023/07/05 03:58:14;;;;;;;82.10;53.28;;;17.30;78.10;;;;;;4946117;28;89543;-47
2023/07/05 04:00:39;;;;;;;81.40;52.90;;;17.30;78.70;;;;;;4946999;28;90324;-45
2023/07/05 04:03:05;;;;;;;82.68;53.03;;;17.30;78.30;;;;;;4936343;28;93494;-45
2023/07/05 04:05:32;;;;;;;82.07;52.80;;;17.30;77.50;;;;;;4936891;28;89051;-46
2023/07/05 04:07:57;;;;;;;84.75;53.55;;;17.30;77.90;;;;;;4937733;28;89995;-45
2023/07/05 04:10:23;;;;;;;82.53;53.17;;;17.30;79.30;;;;;;4940479;28;89587;-46
2023/07/05 04:12:49;;;;;;;82.65;53.22;;;17.20;78.50;;;;;;4940697;28;91295;-46
2023/07/05 04:15:15;;;;;;;83.35;53.70;;;17.30;78.00;;;;;;4940549;28;90004;-45
2023/07/05 04:17:40;;;;;;;82.15;53.15;;;17.20;79.30;;;;;;4941161;28;91105;-46
2023/07/05 04:20:07;;;;;;;81.90;52.80;;;17.20;80.00;;;;;;4936962;28;90116;-46
2023/07/05 04:22:35;;;;;;;82.05;52.70;;;17.20;79.30;;;;;;4935682;28;89954;-46
2023/07/05 04:25:01;;;;;;;81.85;52.90;;;17.20;78.60;;;;;;4943685;28;90034;-46
2023/07/05 04:27:27;;;;;;;82.55;53.10;;;17.20;77.30;;;;;;4947450;28;92584;-45
2023/07/05 04:29:53;;;;;;;82.50;52.92;;;17.20;77.30;;;;;;4935702;28;89478;-44
2023/07/05 04:32:18;;;;;;;81.57;52.90;;;17.20;76.90;;;;;;4938734;28;89451;-45
2023/07/05 04:34:44;;;;;;;83.53;53.53;;;17.20;78.30;;;;;;4944301;28;91233;-45
2023/07/05 04:37:09;;;;;;;82.05;53.35;;;17.20;79.00;;;;;;4944163;28;90600;-45
2023/07/05 04:39:35;;;;;;;83.60;53.17;;;17.20;78.00;;;;;;4936260;28;90358;-46
2023/07/05 04:42:01;;;;;;;82.05;53.22;;;17.20;78.60;;;;;;4931175;28;90201;-45
2023/07/05 04:44:26;;;;;;;82.00;52.97;;;17.20;77.30;;;;;;4941403;28;91023;-46
2023/07/05 04:46:52;;;;;;;82.43;53.05;;;17.20;76.50;;;;;;4943882;28;90063;-45
2023/07/05 04:49:18;;;;;;;82.20;52.90;;;17.20;78.10;;;;;;4943052;28;91116;-46
2023/07/05 04:51:43;;;;;;;81.93;52.85;;;17.10;79.80;;;;;;4944530;28;91087;-45
2023/07/05 04:54:09;;;;;;;82.20;52.70;;;17.20;78.50;;;;;;4942057;28;89226;-46
2023/07/05 04:56:34;;;;;;;81.50;53.03;;;17.10;78.70;;;;;;4942039;28;90186;-45
2023/07/05 04:59:00;;;;;;;83.53;52.97;;;17.20;78.70;;;;;;4934645;28;90144;-45
2023/07/05 05:01:26;;;;;;;81.18;52.63;;;17.20;77.50;;;;;;4937868;28;92014;-45
2023/07/05 05:03:51;;;;;;;82.65;53.10;;;17.10;79.80;;;;;;4943847;28;90050;-47
2023/07/05 05:06:17;;;;;;;80.82;52.92;;;17.10;77.70;;;;;;4940935;28;91521;-46
2023/07/05 05:08:43;;;;;;;83.22;53.03;;;17.10;77.80;;;;;;4942322;28;90996;-46
2023/07/05 05:11:08;;;;;;;83.28;52.67;;;17.20;78.30;;;;;;4940430;28;89632;-45
2023/07/05 05:13:36;;;;;;;83.28;52.92;;;17.10;76.50;;;;;;4931510;28;89616;-46
2023/07/05 05:16:02;;;;;;;82.20;52.92;;;17.20;77.80;;;;;;4940881;28;89837;-46
2023/07/05 05:18:30;;;;;;;81.93;52.88;;;17.10;76.50;;;;;;4935349;28;89938;-47
2023/07/05 05:20:56;;;;;;;80.82;52.90;;;17.10;77.90;;;;;;4946006;28;91418;-46
2023/07/05 05:23:22;;;;;;;82.60;52.75;;;17.10;76.90;;;;;;4944799;28;90127;-45
2023/07/05 05:25:49;;;;;;;82.13;52.50;;;17.10;77.50;;;;;;4938159;28;92629;-46
2023/07/05 05:28:15;;;;;;;81.25;52.47;;;17.20;77.50;;;;;;4946232;28;92812;-47
2023/07/05 05:30:45;;;;;;;82.90;52.97;;;17.20;78.70;;;;;;4941248;28;89627;-47
2023/07/05 05:33:12;;;;;;;82.25;52.78;;;17.20;76.90;;;;;;4937429;28;92954;-45
2023/07/05 05:35:38;;;;;;;82.07;52.47;;;17.20;76.50;;;;;;4947520;28;92083;-46
2023/07/05 05:38:04;;;;;;;84.13;53.08;;;17.20;78.40;;;;;;4943572;28;89843;-46
2023/07/05 05:40:32;;;;;;;80.57;52.40;;;17.20;77.40;;;;;;4937708;28;89743;-45
2023/07/05 05:42:58;;;;;;;89.38;54.55;;;17.20;77.80;;;;;;4941254;28;90602;-45
2023/07/05 05:45:24;;;;;;;83.53;53.00;;;17.30;79.90;;;;;;4934823;28;90072;-45
2023/07/05 05:47:49;;;;;;;89.95;54.75;;;17.30;78.40;;;;;;4945321;28;94485;-45
2023/07/05 05:50:15;;;;;;;88.07;54.55;;;17.30;79.40;;;;;;4940237;28;90417;-47
2023/07/05 05:52:41;;;;;;;90.22;54.88;;;17.40;80.70;;;;;;4944071;28;91538;-45
2023/07/05 05:55:07;;;;;;;83.45;53.83;;;17.30;79.00;;;;;;4945608;28;93566;-47
2023/07/05 05:57:33;;;;;;;86.90;54.00;;;17.40;76.00;;;;;;4943951;28;90569;-47
2023/07/05 05:59:59;;;;;;;91.68;55.10;;;17.40;77.60;;;;;;4937244;28;89555;-45
2023/07/05 06:02:24;;;;;;;89.55;54.95;;;17.40;78.30;;;;;;4937858;28;90487;-45
2023/07/05 06:04:50;;;;;;;88.75;54.17;;;17.50;77.30;;;;;;4943257;28;92395;-44
2023/07/05 06:07:16;;;;;;;90.43;55.63;;;17.50;76.70;;;;;;4928868;28;89713;-45
2023/07/05 06:09:49;;;;;;;97.50;56.53;;;17.50;78.70;;;;;;4919491;28;90143;-45
2023/07/05 06:12:15;;;;;;;91.22;54.58;;;17.50;80.00;;;;;;4942280;28;89820;-45
2023/07/05 06:14:41;;;;;;;90.45;54.88;;;17.50;78.50;;;;;;4939281;28;91447;-45
2023/07/05 06:17:06;;;;;;;90.47;54.42;;;17.60;78.10;;;;;;4934119;28;90814;-42
2023/07/05 06:19:32;;;;;;;88.40;54.03;;;17.60;76.10;;;;;;4937927;28;94800;-43
2023/07/05 06:21:59;;;;;;;90.60;54.80;;;17.70;75.50;;;;;;4936027;28;89375;-44
2023/07/05 06:24:25;;;;;;;90.20;54.63;;;17.70;76.60;;;;;;4945267;28;89533;-41
2023/07/05 06:26:50;;;;;;;88.57;54.35;;;17.70;77.10;;;;;;4949067;28;90253;-42
2023/07/05 06:29:16;;;;;;;92.70;54.33;;;17.70;76.80;;;;;;4932398;28;89598;-43
2023/07/05 06:31:42;;;;;;;90.80;54.50;;;17.80;77.50;;;;;;4940960;28;89886;-42
2023/07/05 06:34:07;;;;;;;87.60;54.30;;;17.80;75.60;;;;;;4938853;28;89879;-42
2023/07/05 06:36:33;;;;;;;86.22;54.20;;;17.90;75.80;;;;;;4937762;28;90233;-43
2023/07/05 06:38:58;;;;;;;88.85;54.60;;;17.90;73.90;;;;;;4938591;28;91795;-44
2023/07/05 06:41:24;;;;;;;89.70;54.63;;;17.90;79.80;;;;;;4940568;28;91961;-44
2023/07/05 06:43:50;;;;;;;89.20;54.45;;;17.90;74.50;;;;;;4932167;28;90175;-43
2023/07/05 06:46:15;;;;;;;88.32;54.30;;;18.00;74.80;;;;;;4931104;28;91230;-44
2023/07/05 06:48:41;;;;;;;87.68;54.20;;;18.00;73.60;;;;;;4937685;28;90848;-46
2023/07/05 06:51:06;;;;;;;85.50;53.65;;;18.00;75.00;;;;;;4942418;28;89938;-43
2023/07/05 06:53:32;;;;;;;87.82;54.42;;;18.00;73.60;;;;;;4935564;28;89887;-42
2023/07/05 06:55:58;;;;;;;87.07;54.08;;;18.10;74.30;;;;;;4938254;28;92751;-41
2023/07/05 06:58:23;;;;;;;88.82;53.83;;;18.10;77.30;;;;;;4933549;28;90047;-41
2023/07/05 07:00:50;;;;;;;89.40;53.53;;;18.20;73.20;;;;;;4937883;28;89564;-44
2023/07/05 07:03:17;;;;;;;88.90;54.53;;;18.20;72.20;;;;;;4943800;28;90671;-44
2023/07/05 07:05:56;;;;;;;85.95;53.80;;;18.20;77.00;;;;;;4938579;28;91353;-43
2023/07/05 07:08:28;;;;;;;89.00;54.17;;;18.30;73.20;;;;;;4933381;28;89717;-42
2023/07/05 07:10:54;;;;;;;89.13;54.00;;;18.30;73.30;;;;;;4940216;28;89554;-42
2023/07/05 07:13:20;;;;;;;88.90;54.17;;;18.30;71.60;;;;;;4936375;28;93005;-45
2023/07/05 07:15:45;;;;;;;87.38;53.90;;;18.40;74.20;;;;;;4932068;28;89697;-44
2023/07/05 07:18:11;;;;;;;86.20;54.15;;;18.40;71.70;;;;;;4933314;28;90107;-44
2023/07/05 07:20:38;;;;;;;85.85;54.03;;;18.40;72.80;;;;;;4935944;28;88490;-43
2023/07/05 07:23:04;;;;;;;87.68;53.65;;;18.50;73.10;;;;;;4938526;28;89767;-41
2023/07/05 07:25:30;;;;;;;89.53;54.25;;;18.50;72.00;;;;;;4917257;28;90597;-41
2023/07/05 07:27:55;;;;;;;87.40;53.95;;;18.60;74.40;;;;;;4932739;28;91115;-45
2023/07/05 07:30:21;;;;;;;86.75;54.10;;;18.60;71.60;;;;;;4940550;28;89813;-41
2023/07/05 07:32:47;;;;;;;88.13;54.08;;;18.60;73.60;;;;;;4930187;28;90246;-43
2023/07/05 07:35:13;;;;;;;85.45;53.75;;;18.70;71.40;;;;;;4928052;28;90367;-43
2023/07/05 07:37:40;;;;;;;87.75;53.67;;;18.70;74.00;;;;;;4938523;28;89714;-43
2023/07/05 07:40:06;;;;;;;87.45;53.90;;;18.80;70.90;;;;;;4932761;28;89813;-44
2023/07/05 07:42:33;;;;;;;87.40;53.90;;;18.80;72.00;;;;;;4936345;28;90382;-43
2023/07/05 07:44:58;;;;;;;90.38;53.80;;;18.90;73.60;;;;;;4934865;28;92246;-44
2023/07/05 07:47:24;;;;;;;88.10;54.03;;;19.00;71.40;;;;;;4931753;28;90192;-43
2023/07/05 07:49:50;;;;;;;87.05;54.15;;;19.00;73.10;;;;;;4943480;28;89554;-45
2023/07/05 07:52:17;;;;;;;86.90;53.85;;;19.00;72.90;;;;;;4934142;28;90564;-42
2023/07/05 07:54:43;;;;;;;86.45;54.00;;;19.10;72.30;;;;;;4935645;28;90630;-42
2023/07/05 07:57:09;;;;;;;86.15;53.97;;;19.10;73.70;;;;;;4931374;28;89654;-42
2023/07/05 07:59:40;;;;;;;86.88;53.97;;;19.20;73.50;;;;;;4925352;28;93694;-42
2023/07/05 08:02:09;;;;;;;89.03;54.22;;;19.20;72.70;;;;;;4927973;28;90337;-43
2023/07/05 08:04:40;;;;;;;88.50;54.00;;;19.30;73.80;;;;;;4940867;28;89611;-45
2023/07/05 08:07:05;;;;;;;91.28;53.83;;;19.40;73.30;;;;;;4938890;28;90457;-45
2023/07/05 08:09:31;;;;;;;87.30;54.03;;;19.40;73.70;;;;;;4937785;28;88821;-44
2023/07/05 08:11:57;;;;;;;88.55;53.95;;;19.40;73.10;;;;;;4939130;28;91783;-45
2023/07/05 08:14:23;;;;;;;88.78;54.03;;;19.50;72.60;;;;;;4933116;28;90643;-44
2023/07/05 08:16:49;;;;;;;89.18;54.42;;;19.50;71.40;;;;;;4932055;28;90538;-40
2023/07/05 08:19:15;;;;;;;89.80;54.20;;;19.60;71.20;;;;;;4933284;28;90086;-44
2023/07/05 08:21:45;;;;;;;90.47;53.97;;;19.60;70.30;;;;;;4929934;28;90336;-44
2023/07/05 08:24:11;;;;;;;87.65;54.25;;;19.60;70.50;;;;;;4930274;28;91567;-44
2023/07/05 08:26:36;;;;;;;88.93;54.50;;;19.60;71.60;;;;;;4941401;28;89913;-41
2023/07/05 08:29:03;;;;;;;87.13;53.70;;;19.60;70.30;;;;;;4938493;28;89585;-41
2023/07/05 08:31:29;;;;;;;89.05;54.28;;;19.70;69.60;;;;;;4930871;28;90968;-42
2023/07/05 08:33:55;;;;;;;90.70;54.10;;;19.70;69.30;;;;;;4933181;28;89203;-45
2023/07/05 08:36:35;;;;;;;87.78;53.55;;;19.70;68.80;;;;;;4932041;28;89657;-44
2023/07/05 08:39:03;;;;;;;88.53;54.08;;;19.70;71.30;;;;;;4936945;28;89470;-42
2023/07/05 08:41:38;;;;;;;87.57;53.92;;;19.70;71.50;;;;;;4930885;28;93207;-43
2023/07/05 08:44:34;;;;;;;87.25;53.95;;;19.80;70.50;;;;;;4935693;28;93683;-43
2023/07/05 08:47:23;;;;;;;87.88;53.90;;;19.80;70.20;;;;;;4935529;28;89478;-43
2023/07/05 08:50:18;;;;;;;88.28;53.92;;;19.80;70.20;;;;;;4936536;28;91317;-44
2023/07/05 08:52:47;;;;;;;85.55;53.92;;;19.90;71.60;;;;;;4938888;28;90540;-44
2023/07/05 08:55:21;;;;;;;87.60;53.85;;;20.00;69.90;;;;;;4932372;28;90670;-43
2023/07/05 08:57:52;;;;;;;87.80;53.70;;;20.00;68.70;;;;;;4928902;28;91188;-43
2023/07/05 09:00:26;;;;;;;;;;;20.00;68.60;;;;;;4935256;28;89447;-42
2023/07/05 09:02:52;;;;;;;87.72;53.95;;;20.10;68.50;;;;;;4935396;28;90435;-44
2023/07/05 09:05:56;;;;;;;87.60;53.63;;;20.10;68.50;;;;;;4931180;28;89724;-43
2023/07/05 09:08:40;;;;;;;87.50;53.97;;;20.20;70.50;;;;;;4895605;28;91113;-41
2023/07/05 09:11:13;;;;;;;85.95;53.47;;;20.20;67.30;;;;;;4932419;28;90065;-40
2023/07/05 09:13:41;;;;;;;85.63;53.72;;;20.30;67.30;;;;;;4934624;28;89831;-43
2023/07/05 09:16:48;;;;;;;87.15;53.72;;;20.30;67.20;;;;;;4933452;28;89406;-41
2023/07/05 09:19:53;;;;;;;86.60;53.80;;;20.30;67.10;;;;;;4898362;28;90448;-46
2023/07/05 09:22:24;;;;;;;87.43;53.92;;;20.40;69.60;;;;;;4929593;28;93828;-44
2023/07/05 09:24:51;;;;;;;88.78;54.13;;;20.40;68.80;;;;;;4929415;28;90132;-44
2023/07/05 09:27:32;;;;;;;93.20;54.53;;;20.50;70.30;;;;;;4939300;28;90880;-49
2023/07/05 09:30:04;;;;;;;87.88;53.78;;;20.50;65.80;;;;;;4937745;28;89640;-47
2023/07/05 09:32:34;;;;;;;88.60;53.83;;;20.30;62.50;;;;;;4930905;28;93644;-46
2023/07/05 09:35:00;;;;;;;92.07;53.93;;;20.30;64.70;;;;;;4932865;28;92962;-47
2023/07/05 09:37:35;;;;;;;89.57;54.35;;;20.30;63.70;;;;;;4933704;28;90031;-47
2023/07/05 09:40:15;;;;;;;92.72;54.58;;;20.40;63.00;;;;;;4925222;28;92724;-48
2023/07/05 09:42:49;;;;;;;90.53;54.05;;;20.50;64.10;;;;;;4936823;28;90312;-45
2023/07/05 09:45:17;;;;;;;91.28;54.28;;;20.60;63.90;;;;;;4930951;28;91390;-47
2023/07/05 09:47:46;;;;;;;88.50;54.33;;;20.60;62.70;;;;;;4936791;28;92689;-49
2023/07/05 09:50:17;;;;;;;88.43;54.28;;;20.60;62.20;;;;;;4934441;28;89895;-47
2023/07/05 09:52:47;;;;;;;91.68;54.42;;;20.70;59.90;;;;;;4934870;28;90188;-45
2023/07/05 09:55:14;;;;;;;89.47;53.85;;;20.80;60.60;;;;;;4939890;28;90278;-43
2023/07/05 09:57:42;;;;;;;88.00;54.00;;;20.70;58.50;;;;;;4937333;28;95985;-45
2023/07/05 10:00:43;;;;;;;86.75;53.88;;;20.80;58.60;;;;;;4937987;28;91110;-49
2023/07/05 10:03:11;;;;;;;86.78;53.70;;;20.70;59.50;;;;;;4877907;28;89996;-47
2023/07/05 10:05:38;;;;;;;89.32;53.92;;;20.70;60.00;;;;;;4925524;28;90112;-45
2023/07/05 10:08:15;;;;;;;85.18;53.85;;;20.50;64.70;;;;;;4935472;28;92197;-46
2023/07/05 10:10:40;;;;;;;92.13;53.63;;;20.30;68.80;;;;;;4934737;28;89764;-45
2023/07/05 10:13:20;;;;;;;85.68;53.85;;;20.30;69.50;;;;;;4936468;28;89929;-44
2023/07/05 10:15:50;;;;;;;86.50;53.53;;;20.10;69.90;;;;;;4936229;28;90304;-44
2023/07/05 10:18:27;;;;;;;89.25;53.80;;;20.20;71.00;;;;;;4935370;28;89592;-46
2023/07/05 10:20:54;;;;;;;87.35;53.45;;;20.10;72.30;;;;;;4937589;28;89357;-45
2023/07/05 10:23:24;;;;;;;85.07;53.78;;;20.20;71.90;;;;;;4935585;28;93694;-47
2023/07/05 10:25:52;;;;;;;87.25;53.78;;;20.20;70.30;;;;;;4925124;28;91240;-46
2023/07/05 10:28:21;;;;;;;88.50;53.85;;;20.40;68.20;;;;;;4936857;28;89752;-46
2023/07/05 10:31:05;;;;;;;87.57;53.83;;;20.50;67.10;;;;;;4951976;28;89692;-48
2023/07/05 10:33:36;;;;;;;85.97;53.38;;;20.50;65.20;;;;;;4931433;28;89544;-46
2023/07/05 10:36:05;;;;;;;88.68;54.10;;;20.50;66.50;;;;;;4941338;28;89858;-49
2023/07/05 10:38:47;;;;;;;87.35;53.92;;;20.50;64.10;;;;;;4937970;28;90720;-47
2023/07/05 10:41:19;;;;;;;86.57;53.60;;;20.70;64.70;;;;;;4929910;28;90021;-47
2023/07/05 10:44:00;;;;;;;87.97;54.03;;;20.80;64.20;;;;;;4939643;28;88982;-43
2023/07/05 10:46:26;;;;;;;86.10;53.83;;;20.80;62.00;;;;;;4943552;28;91210;-46
2023/07/05 10:48:53;;;;;;;87.43;53.88;;;20.70;62.20;;;;;;4934786;28;93478;-46
2023/07/05 10:51:21;;;;;;;87.20;53.97;;;20.80;63.80;;;;;;4947097;28;90928;-43
2023/07/05 10:53:57;;;;;;;86.68;53.78;;;20.80;63.10;;;;;;4938761;28;90463;-45
2023/07/05 10:56:29;;;;;;;86.90;53.97;;;20.70;63.80;;;;;;4929876;28;91157;-43
2023/07/05 10:59:18;;;;;;;89.25;54.10;;;20.80;64.10;;;;;;4930502;28;91267;-46
2023/07/05 11:02:12;;;;;;;88.68;53.67;;;20.70;64.80;;;;;;4938159;28;91895;-47
2023/07/05 11:04:40;;;;;;;88.03;53.83;;;20.70;64.30;;;;;;4923409;28;91134;-44
2023/07/05 11:07:10;;;;;;;87.35;54.03;;;20.80;64.40;;;;;;4932480;28;94244;-48
2023/07/05 11:09:37;;;;;;;93.15;54.08;;;20.80;64.80;;;;;;4941481;28;89729;-47
2023/07/05 11:12:10;;;;;;;87.28;53.53;;;20.80;62.00;;;;;;4940578;28;89608;-46
2023/07/05 11:14:37;;;;;;;89.38;54.05;;;20.90;62.90;;;;;;4937256;28;89991;-43
2023/07/05 11:17:04;;;;;;;88.30;53.80;;;21.00;63.70;;;;;;4934287;28;90645;-42
2023/07/05 11:19:31;;;;;;;87.57;54.15;;;21.10;60.10;;;;;;4937656;28;93961;-43
2023/07/05 11:21:58;;;;;;;89.20;53.95;;;21.10;58.70;;;;;;4941129;28;92188;-47
2023/07/05 11:24:39;;;;;;;88.20;54.38;;;21.20;59.40;;;;;;4932345;28;90028;-44
2023/07/05 11:27:23;;;;;;;87.95;54.13;;;21.30;59.20;;;;;;4930950;28;89402;-47
2023/07/05 11:29:53;;;;;;;86.65;54.08;;;21.30;58.40;;;;;;4930112;28;90013;-47
2023/07/05 11:32:26;;;;;;;86.97;54.40;;;21.40;57.70;;;;;;4933415;28;89937;-43
2023/07/05 11:34:54;;;;;;;93.13;54.28;;;21.60;57.80;;;;;;4939728;28;89765;-43
2023/07/05 11:37:19;;;;;;;87.65;54.58;;;21.70;57.30;;;;;;4939040;28;89961;-44
2023/07/05 11:39:48;;;;;;;90.97;54.72;;;21.80;57.80;;;;;;4935815;28;89988;-44
2023/07/05 11:42:13;;;;;;;87.95;54.47;;;21.80;58.30;;;;;;4932961;28;91115;-43
2023/07/05 11:45:05;;;;;;;91.47;55.28;;;21.90;57.20;;;;;;4941600;28;89547;-48
2023/07/05 11:47:34;;;;;;;92.88;55.63;;;22.00;59.40;;;;;;4911490;28;91139;-49
2023/07/05 11:50:07;;;;;;;90.53;54.95;;;22.10;57.90;;;;;;4937369;28;89985;-44
2023/07/05 11:52:44;;;;;;;94.63;55.17;;;22.10;57.80;;;;;;4934793;28;89434;-48
2023/07/05 11:55:28;;;;;;;89.60;54.75;;;22.00;56.40;;;;;;4934566;28;89900;-45
2023/07/05 11:58:13;;;;;;;89.63;54.55;;;21.90;57.10;;;;;;4919854;28;91260;-46
2023/07/05 12:00:48;;;;;;;86.97;54.25;;;21.70;57.00;;;;;;4941176;28;91169;-47
2023/07/05 12:03:14;;;;;;;91.18;54.58;;;21.60;58.40;;;;;;4933887;28;92671;-46
2023/07/05 12:05:40;;;;;;;89.25;54.38;;;21.60;59.10;;;;;;4937899;28;93251;-45
2023/07/05 12:08:18;;;;;;;90.13;54.83;;;21.60;57.20;;;;;;4934335;28;91576;-46
2023/07/05 12:10:55;;;;;;;88.03;54.03;;;21.70;57.40;;;;;;4937908;28;90887;-46
2023/07/05 12:13:23;;;;;;;87.95;54.53;;;21.60;57.70;;;;;;4938427;28;89963;-45
2023/07/05 12:15:50;;;;;;;86.18;53.75;;;21.50;58.50;;;;;;4936798;28;90994;-45
2023/07/05 12:18:16;;;;;;;89.28;53.72;;;21.30;60.60;;;;;;4932266;28;90398;-45
2023/07/05 12:20:48;;;;;;;88.60;54.42;;;21.20;61.20;;;;;;4929602;28;91121;-48
2023/07/05 12:23:17;;;;;;;88.13;54.17;;;21.40;61.30;;;;;;4931244;28;89555;-46
2023/07/05 12:25:49;;;;;;;89.03;54.40;;;21.60;61.50;;;;;;4929323;28;90404;-46
2023/07/05 12:28:19;;;;;;;87.65;53.95;;;21.80;60.40;;;;;;4926478;28;94866;-47
2023/07/05 12:30:45;;;;;;;86.70;53.78;;;21.80;58.50;;;;;;4929559;28;92389;-45
2023/07/05 12:33:23;;;;;;;90.22;53.92;;;21.70;58.80;;;;;;4929069;28;95064;-46
2023/07/05 12:36:11;;;;;;;87.30;54.00;;;21.60;60.00;;;;;;4935653;28;89547;-50
2023/07/05 12:38:39;;;;;;;85.45;53.72;;;21.70;60.70;;;;;;4929549;28;90267;-48
2023/07/05 12:41:07;;;;;;;86.30;53.85;;;21.50;60.50;;;;;;4932997;28;92166;-46